createdAt,value
2022-07-30T09:26:36.777Z,22.10
2022-07-30T09:29:29.121Z,22.10
2022-07-30T09:32:38.398Z,22.00
2022-07-30T09:35:27.685Z,22.00
2022-07-30T09:38:27.774Z,22.10
2022-07-30T09:41:40.105Z,22.30
2022-07-30T09:44:32.606Z,22.30
2022-07-30T09:47:38.393Z,22.20
2022-07-30T13:39:46.131Z,20.90
2022-07-30T13:42:13.392Z,20.90
2022-07-30T13:44:40.835Z,20.90
2022-07-30T13:47:10.668Z,20.90
2022-07-30T13:49:44.723Z,20.90
2022-07-30T13:52:13.323Z,20.80
2022-07-30T13:54:40.917Z,20.90
2022-07-30T13:57:09.526Z,20.90
2022-07-30T13:59:37.105Z,20.80
2022-07-30T14:02:05.806Z,20.90
2022-07-30T14:04:36.438Z,20.90
2022-07-30T14:07:06.089Z,20.90
2022-07-30T14:09:33.546Z,20.90
2022-07-30T14:12:13.166Z,20.90
2022-07-30T14:14:40.881Z,21.00
2022-07-30T14:17:09.459Z,20.90
2022-07-30T14:19:38.945Z,21.00
2022-07-30T14:22:06.566Z,21.10
2022-07-30T14:24:36.141Z,21.20
2022-07-30T14:27:04.260Z,21.20
2022-07-30T14:29:33.369Z,21.20
2022-07-30T14:32:02.019Z,21.20
2022-07-30T14:34:29.527Z,21.30
2022-07-30T14:36:57.420Z,21.40
2022-07-30T14:39:26.743Z,21.30
2022-07-30T14:42:14.710Z,21.30
2022-07-30T17:53:34.986Z,21.30
2022-07-30T17:56:03.444Z,21.30
2022-07-30T17:58:31.112Z,21.20
2022-07-30T18:00:59.571Z,21.20
2022-07-30T18:03:29.165Z,21.20
2022-07-30T18:06:00.666Z,21.20
2022-07-30T18:08:32.375Z,21.10
2022-07-30T18:11:03.966Z,21.10
2022-07-30T18:13:33.568Z,21.10
2022-07-30T18:16:01.179Z,21.10
2022-07-30T18:18:31.638Z,21.00
2022-07-30T18:21:01.694Z,21.00
2022-07-30T18:23:34.812Z,20.90
2022-07-30T18:26:03.631Z,20.90
2022-07-30T18:28:33.217Z,20.90
2022-07-30T18:31:00.781Z,20.80
2022-07-30T18:33:29.398Z,20.80
2022-07-30T18:35:58.027Z,20.70
2022-07-30T18:38:26.591Z,20.70
2022-07-30T18:41:01.197Z,20.60
2022-07-30T18:43:30.741Z,20.60
2022-07-30T18:46:01.297Z,20.50
2022-07-30T18:48:29.787Z,20.50
2022-07-30T18:50:59.570Z,20.50
2022-07-30T18:53:28.237Z,20.50
2022-07-30T18:55:57.796Z,20.40
2022-07-30T18:58:25.390Z,20.40
2022-07-30T19:00:55.009Z,20.40
2022-07-30T19:03:23.571Z,20.30
2022-07-30T19:05:55.624Z,20.30
2022-07-30T19:08:23.770Z,20.30
2022-07-30T19:10:54.440Z,20.20
2022-07-30T19:13:24.998Z,20.20
2022-07-30T19:15:55.635Z,20.20
2022-07-30T19:18:24.224Z,20.20
2022-07-30T19:20:53.817Z,20.20
2022-07-30T19:23:21.452Z,20.10
2022-07-30T19:25:51.018Z,20.10
2022-07-30T19:28:20.009Z,20.00
2022-07-30T19:30:55.118Z,20.00
2022-07-30T19:33:25.823Z,20.00
2022-07-30T19:35:53.400Z,19.90
2022-07-30T19:38:24.025Z,19.90
2022-07-30T19:40:54.616Z,19.80
2022-07-30T19:43:24.425Z,19.80
2022-07-30T19:45:58.565Z,19.80
2022-07-30T19:48:31.843Z,19.70
2022-07-30T19:51:01.487Z,19.70
2022-07-30T19:53:31.672Z,19.70
2022-07-30T19:56:10.476Z,19.70
2022-07-30T19:58:40.335Z,19.60
2022-07-30T20:01:09.488Z,19.50
2022-07-30T20:03:40.171Z,19.50
2022-07-30T20:06:08.700Z,19.50
2022-07-30T20:08:44.894Z,19.40
2022-07-30T20:11:16.474Z,19.40
2022-07-30T20:13:50.563Z,19.40
2022-07-30T20:16:20.150Z,19.30
2022-07-30T20:18:49.698Z,19.30
2022-07-30T20:21:20.384Z,19.30
2022-07-30T20:23:47.966Z,19.20
2022-07-30T20:26:25.084Z,19.10
2022-07-30T20:28:56.192Z,19.10
2022-07-30T20:31:28.846Z,19.00
2022-07-30T20:33:59.458Z,19.00
2022-07-30T20:36:28.973Z,19.00
2022-07-30T20:38:57.893Z,18.90
2022-07-30T20:41:26.241Z,18.90
2022-07-30T20:43:54.797Z,18.90
2022-07-30T20:46:24.442Z,18.90
2022-07-30T20:48:55.101Z,18.80
2022-07-30T20:51:33.589Z,18.80
2022-07-30T20:54:03.320Z,18.80
2022-07-30T20:56:31.871Z,18.70
2022-07-30T20:59:01.508Z,18.70
2022-07-30T21:01:32.091Z,18.70
2022-07-30T21:04:01.652Z,18.70
2022-07-30T21:06:30.319Z,18.70
2022-07-30T21:08:58.860Z,18.60
2022-07-30T21:11:27.725Z,18.60
2022-07-30T21:13:57.116Z,18.60
2022-07-30T21:16:30.543Z,18.50
2022-07-30T21:18:58.280Z,18.40
2022-07-30T21:21:30.634Z,18.40
2022-07-30T21:24:14.579Z,18.40
2022-07-30T21:26:42.155Z,18.30
2022-07-30T21:29:11.779Z,18.20
2022-07-30T21:32:01.074Z,18.20
2022-07-30T21:34:33.656Z,18.20
2022-07-30T21:37:04.669Z,18.10
2022-07-30T21:39:33.061Z,18.10
2022-07-30T21:42:11.984Z,18.00
2022-07-30T21:44:41.583Z,17.90
2022-07-30T21:47:10.468Z,17.80
2022-07-30T21:49:40.713Z,17.80
2022-07-30T21:52:14.371Z,17.70
2022-07-30T21:54:48.589Z,17.60
2022-07-30T21:57:23.216Z,17.50
2022-07-30T21:59:55.399Z,17.50
2022-07-30T22:02:28.063Z,17.40
2022-07-30T22:04:55.413Z,17.30
2022-07-30T22:07:24.999Z,17.30
2022-07-30T22:09:54.634Z,17.20
2022-07-30T22:12:25.901Z,17.10
2022-07-30T22:14:57.921Z,17.00
2022-07-30T22:17:37.392Z,17.00
2022-07-30T22:20:18.890Z,17.00
2022-07-30T22:22:47.519Z,16.90
2022-07-30T22:25:16.368Z,16.80
2022-07-30T22:27:56.370Z,16.70
2022-07-30T22:30:27.877Z,16.70
2022-07-30T22:33:06.191Z,16.70
2022-07-30T22:35:36.973Z,16.70
2022-07-30T22:38:07.258Z,16.60
2022-07-30T22:40:38.011Z,16.60
2022-07-30T22:43:09.640Z,16.50
2022-07-30T22:45:48.177Z,16.50
2022-07-30T22:48:26.480Z,16.50
2022-07-30T22:50:56.483Z,16.40
2022-07-30T22:54:02.849Z,16.40
2022-07-30T22:56:19.584Z,16.30
2022-07-30T22:58:52.416Z,16.30
2022-07-30T23:01:19.977Z,16.30
2022-07-30T23:03:51.584Z,16.30
2022-07-30T23:06:20.729Z,16.30
2022-07-30T23:08:49.777Z,16.20
2022-07-30T23:11:19.407Z,16.10
2022-07-30T23:13:50.018Z,16.10
2022-07-30T23:16:19.592Z,16.00
2022-07-30T23:18:48.197Z,16.10
2022-07-30T23:21:16.812Z,16.00
2022-07-30T23:23:47.397Z,16.00
2022-07-30T23:26:16.000Z,16.00
2022-07-30T23:28:44.611Z,15.90
2022-07-30T23:31:13.208Z,15.90
2022-07-30T23:33:41.794Z,15.80
2022-07-30T23:36:12.105Z,15.80
2022-07-30T23:38:42.018Z,15.80
2022-07-30T23:41:29.682Z,15.70
2022-07-30T23:44:02.149Z,15.70
2022-07-30T23:46:30.878Z,15.70
2022-07-30T23:49:02.338Z,15.70
2022-07-30T23:51:33.591Z,15.70
2022-07-30T23:54:04.169Z,15.60
2022-07-30T23:56:34.300Z,15.60
2022-07-30T23:59:02.912Z,15.50
